sensor_id;sensor_type;location;lat;lon;timestamp;P1;durP1;ratioP1;P2;durP2;ratioP2
55539;SDS011;41384;51.418;7.286;2022-12-13T00:01:52;17.63;;;8.15;;
55539;SDS011;41384;51.418;7.286;2022-12-13T00:04:18;15.63;;;8.63;;
55539;SDS011;41384;51.418;7.286;2022-12-13T00:06:45;18.92;;;8.77;;
55539;SDS011;41384;51.418;7.286;2022-12-13T00:09:17;17.65;;;9.23;;
55539;SDS011;41384;51.418;7.286;2022-12-13T00:11:43;14.93;;;8.80;;
55539;SDS011;41384;51.418;7.286;2022-12-13T00:14:09;20.08;;;8.95;;
55539;SDS011;41384;51.418;7.286;2022-12-13T00:16:37;16.25;;;8.52;;
55539;SDS011;41384;51.418;7.286;2022-12-13T00:19:03;19.67;;;8.35;;
55539;SDS011;41384;51.418;7.286;2022-12-13T00:21:29;22.52;;;8.45;;
55539;SDS011;41384;51.418;7.286;2022-12-13T00:23:57;18.70;;;8.90;;
55539;SDS011;41384;51.418;7.286;2022-12-13T00:26:25;20.20;;;9.75;;
55539;SDS011;41384;51.418;7.286;2022-12-13T00:28:52;18.05;;;9.25;;
55539;SDS011;41384;51.418;7.286;2022-12-13T00:31:19;17.33;;;8.77;;
55539;SDS011;41384;51.418;7.286;2022-12-13T00:33:46;19.85;;;9.10;;
55539;SDS011;41384;51.418;7.286;2022-12-13T00:36:13;17.60;;;8.90;;
55539;SDS011;41384;51.418;7.286;2022-12-13T00:38:38;18.52;;;9.05;;
55539;SDS011;41384;51.418;7.286;2022-12-13T00:41:13;17.67;;;9.05;;
55539;SDS011;41384;51.418;7.286;2022-12-13T00:43:41;18.42;;;8.88;;
55539;SDS011;41384;51.418;7.286;2022-12-13T00:46:17;22.23;;;9.75;;
55539;SDS011;41384;51.418;7.286;2022-12-13T00:48:47;24.67;;;9.48;;
55539;SDS011;41384;51.418;7.286;2022-12-13T00:51:13;20.75;;;9.40;;
55539;SDS011;41384;51.418;7.286;2022-12-13T00:53:38;20.58;;;9.48;;
55539;SDS011;41384;51.418;7.286;2022-12-13T00:56:08;19.50;;;9.25;;
55539;SDS011;41384;51.418;7.286;2022-12-13T00:58:35;18.48;;;9.48;;
55539;SDS011;41384;51.418;7.286;2022-12-13T01:01:07;18.35;;;8.93;;
55539;SDS011;41384;51.418;7.286;2022-12-13T01:03:34;22.20;;;9.75;;
55539;SDS011;41384;51.418;7.286;2022-12-13T01:06:00;18.27;;;9.50;;
55539;SDS011;41384;51.418;7.286;2022-12-13T01:08:26;19.83;;;9.27;;
55539;SDS011;41384;51.418;7.286;2022-12-13T01:10:53;19.00;;;9.30;;
55539;SDS011;41384;51.418;7.286;2022-12-13T01:13:18;20.05;;;9.98;;
55539;SDS011;41384;51.418;7.286;2022-12-13T01:15:44;18.63;;;8.98;;
55539;SDS011;41384;51.418;7.286;2022-12-13T01:18:11;20.90;;;10.07;;
55539;SDS011;41384;51.418;7.286;2022-12-13T01:20:38;20.60;;;9.57;;
55539;SDS011;41384;51.418;7.286;2022-12-13T01:23:03;22.83;;;10.27;;
55539;SDS011;41384;51.418;7.286;2022-12-13T01:25:30;20.10;;;9.50;;
55539;SDS011;41384;51.418;7.286;2022-12-13T01:27:57;17.52;;;9.10;;
55539;SDS011;41384;51.418;7.286;2022-12-13T01:30:24;19.55;;;9.98;;
55539;SDS011;41384;51.418;7.286;2022-12-13T01:32:50;17.42;;;9.35;;
55539;SDS011;41384;51.418;7.286;2022-12-13T01:35:15;19.88;;;9.48;;
55539;SDS011;41384;51.418;7.286;2022-12-13T01:37:40;19.42;;;9.60;;
55539;SDS011;41384;51.418;7.286;2022-12-13T01:40:07;24.45;;;9.40;;
55539;SDS011;41384;51.418;7.286;2022-12-13T01:42:36;21.73;;;9.52;;
55539;SDS011;41384;51.418;7.286;2022-12-13T01:45:07;20.50;;;9.52;;
55539;SDS011;41384;51.418;7.286;2022-12-13T01:47:55;19.90;;;8.88;;
55539;SDS011;41384;51.418;7.286;2022-12-13T01:50:26;18.27;;;8.98;;
55539;SDS011;41384;51.418;7.286;2022-12-13T01:52:56;23.30;;;10.30;;
55539;SDS011;41384;51.418;7.286;2022-12-13T01:55:23;21.63;;;10.27;;
55539;SDS011;41384;51.418;7.286;2022-12-13T01:57:51;19.65;;;9.90;;
55539;SDS011;41384;51.418;7.286;2022-12-13T02:00:19;22.33;;;9.90;;
55539;SDS011;41384;51.418;7.286;2022-12-13T02:02:45;18.15;;;9.40;;
55539;SDS011;41384;51.418;7.286;2022-12-13T02:05:15;21.48;;;9.32;;
55539;SDS011;41384;51.418;7.286;2022-12-13T02:07:49;21.23;;;10.98;;
55539;SDS011;41384;51.418;7.286;2022-12-13T02:10:15;19.08;;;9.82;;
55539;SDS011;41384;51.418;7.286;2022-12-13T02:12:41;18.45;;;9.25;;
55539;SDS011;41384;51.418;7.286;2022-12-13T02:15:10;22.92;;;10.52;;
55539;SDS011;41384;51.418;7.286;2022-12-13T02:17:42;22.38;;;10.32;;
55539;SDS011;41384;51.418;7.286;2022-12-13T02:20:16;21.00;;;10.30;;
55539;SDS011;41384;51.418;7.286;2022-12-13T02:22:48;23.02;;;11.10;;
55539;SDS011;41384;51.418;7.286;2022-12-13T02:31:08;21.70;;;9.63;;
55539;SDS011;41384;51.418;7.286;2022-12-13T02:33:46;21.73;;;9.27;;
55539;SDS011;41384;51.418;7.286;2022-12-13T02:36:24;25.40;;;9.05;;
55539;SDS011;41384;51.418;7.286;2022-12-13T02:39:08;20.38;;;10.20;;
55539;SDS011;41384;51.418;7.286;2022-12-13T02:41:46;23.38;;;10.48;;
55539;SDS011;41384;51.418;7.286;2022-12-13T02:44:24;20.15;;;10.02;;
55539;SDS011;41384;51.418;7.286;2022-12-13T02:49:21;21.73;;;9.70;;
55539;SDS011;41384;51.418;7.286;2022-12-13T02:51:50;18.42;;;9.23;;
55539;SDS011;41384;51.418;7.286;2022-12-13T02:54:16;22.60;;;10.07;;
55539;SDS011;41384;51.418;7.286;2022-12-13T02:56:41;21.48;;;10.05;;
55539;SDS011;41384;51.418;7.286;2022-12-13T02:59:16;18.73;;;10.05;;
55539;SDS011;41384;51.418;7.286;2022-12-13T03:05:02;24.02;;;10.40;;
55539;SDS011;41384;51.418;7.286;2022-12-13T03:08:12;21.55;;;10.55;;
55539;SDS011;41384;51.418;7.286;2022-12-13T03:11:02;23.90;;;10.88;;
55539;SDS011;41384;51.418;7.286;2022-12-13T03:16:20;23.25;;;11.10;;
55539;SDS011;41384;51.418;7.286;2022-12-13T03:18:52;22.95;;;11.00;;
55539;SDS011;41384;51.418;7.286;2022-12-13T03:21:21;22.27;;;10.50;;
55539;SDS011;41384;51.418;7.286;2022-12-13T03:23:47;19.33;;;9.85;;
55539;SDS011;41384;51.418;7.286;2022-12-13T03:26:12;23.38;;;10.63;;
55539;SDS011;41384;51.418;7.286;2022-12-13T03:28:40;23.45;;;10.90;;
55539;SDS011;41384;51.418;7.286;2022-12-13T03:31:06;18.27;;;9.77;;
55539;SDS011;41384;51.418;7.286;2022-12-13T03:33:32;20.30;;;9.63;;
55539;SDS011;41384;51.418;7.286;2022-12-13T03:35:57;22.85;;;10.45;;
55539;SDS011;41384;51.418;7.286;2022-12-13T03:38:23;19.83;;;9.68;;
55539;SDS011;41384;51.418;7.286;2022-12-13T03:40:56;19.38;;;10.43;;
55539;SDS011;41384;51.418;7.286;2022-12-13T03:43:42;24.17;;;9.77;;
55539;SDS011;41384;51.418;7.286;2022-12-13T03:46:09;22.90;;;10.07;;
55539;SDS011;41384;51.418;7.286;2022-12-13T03:48:35;24.58;;;10.18;;
55539;SDS011;41384;51.418;7.286;2022-12-13T03:51:00;24.80;;;10.52;;
55539;SDS011;41384;51.418;7.286;2022-12-13T03:53:26;24.67;;;10.35;;
55539;SDS011;41384;51.418;7.286;2022-12-13T03:55:52;20.27;;;10.05;;
55539;SDS011;41384;51.418;7.286;2022-12-13T03:58:18;21.30;;;9.15;;
55539;SDS011;41384;51.418;7.286;2022-12-13T04:00:43;22.35;;;10.38;;
55539;SDS011;41384;51.418;7.286;2022-12-13T04:03:09;20.23;;;9.88;;
55539;SDS011;41384;51.418;7.286;2022-12-13T04:05:34;23.45;;;11.20;;
55539;SDS011;41384;51.418;7.286;2022-12-13T04:08:00;23.75;;;10.63;;
55539;SDS011;41384;51.418;7.286;2022-12-13T04:10:25;21.80;;;10.13;;
55539;SDS011;41384;51.418;7.286;2022-12-13T04:12:51;21.15;;;9.77;;
55539;SDS011;41384;51.418;7.286;2022-12-13T04:15:35;15.35;;;8.70;;
55539;SDS011;41384;51.418;7.286;2022-12-13T04:18:00;22.50;;;10.13;;
55539;SDS011;41384;51.418;7.286;2022-12-13T04:20:25;23.67;;;10.10;;
55539;SDS011;41384;51.418;7.286;2022-12-13T04:22:51;19.40;;;9.40;;
55539;SDS011;41384;51.418;7.286;2022-12-13T04:25:16;18.23;;;9.82;;
55539;SDS011;41384;51.418;7.286;2022-12-13T04:27:41;17.75;;;9.57;;
55539;SDS011;41384;51.418;7.286;2022-12-13T04:30:07;20.10;;;8.88;;
55539;SDS011;41384;51.418;7.286;2022-12-13T04:32:32;18.10;;;9.10;;
55539;SDS011;41384;51.418;7.286;2022-12-13T04:34:58;18.58;;;8.60;;
55539;SDS011;41384;51.418;7.286;2022-12-13T04:37:23;23.63;;;11.02;;
55539;SDS011;41384;51.418;7.286;2022-12-13T04:39:49;15.85;;;8.93;;
55539;SDS011;41384;51.418;7.286;2022-12-13T04:42:15;20.60;;;9.43;;
55539;SDS011;41384;51.418;7.286;2022-12-13T04:44:40;17.33;;;8.48;;
55539;SDS011;41384;51.418;7.286;2022-12-13T04:47:06;21.02;;;9.88;;
55539;SDS011;41384;51.418;7.286;2022-12-13T04:49:31;22.70;;;9.68;;
55539;SDS011;41384;51.418;7.286;2022-12-13T04:51:57;20.58;;;9.95;;
55539;SDS011;41384;51.418;7.286;2022-12-13T04:54:23;17.02;;;9.48;;
55539;SDS011;41384;51.418;7.286;2022-12-13T04:56:48;20.00;;;8.80;;
55539;SDS011;41384;51.418;7.286;2022-12-13T04:59:14;21.08;;;8.98;;
55539;SDS011;41384;51.418;7.286;2022-12-13T05:01:40;15.88;;;9.38;;
55539;SDS011;41384;51.418;7.286;2022-12-13T05:04:05;19.10;;;9.38;;
55539;SDS011;41384;51.418;7.286;2022-12-13T05:06:30;19.90;;;9.27;;
55539;SDS011;41384;51.418;7.286;2022-12-13T05:08:55;18.23;;;8.45;;
55539;SDS011;41384;51.418;7.286;2022-12-13T05:11:21;16.25;;;8.52;;
55539;SDS011;41384;51.418;7.286;2022-12-13T05:13:46;19.40;;;8.48;;
55539;SDS011;41384;51.418;7.286;2022-12-13T05:16:11;14.07;;;7.78;;
55539;SDS011;41384;51.418;7.286;2022-12-13T05:18:37;16.20;;;8.38;;
55539;SDS011;41384;51.418;7.286;2022-12-13T05:21:05;15.73;;;8.27;;
55539;SDS011;41384;51.418;7.286;2022-12-13T05:23:33;14.13;;;7.38;;
55539;SDS011;41384;51.418;7.286;2022-12-13T05:25:59;18.23;;;8.07;;
55539;SDS011;41384;51.418;7.286;2022-12-13T05:28:24;16.13;;;8.18;;
55539;SDS011;41384;51.418;7.286;2022-12-13T05:30:52;16.85;;;9.40;;
55539;SDS011;41384;51.418;7.286;2022-12-13T05:33:22;20.02;;;8.15;;
55539;SDS011;41384;51.418;7.286;2022-12-13T05:35:47;15.27;;;8.15;;
55539;SDS011;41384;51.418;7.286;2022-12-13T05:38:13;20.65;;;8.13;;
55539;SDS011;41384;51.418;7.286;2022-12-13T05:40:38;18.38;;;8.35;;
55539;SDS011;41384;51.418;7.286;2022-12-13T05:43:04;20.33;;;8.05;;
55539;SDS011;41384;51.418;7.286;2022-12-13T05:45:30;17.50;;;8.25;;
55539;SDS011;41384;51.418;7.286;2022-12-13T05:47:56;18.80;;;8.13;;
55539;SDS011;41384;51.418;7.286;2022-12-13T05:50:21;17.15;;;7.82;;
55539;SDS011;41384;51.418;7.286;2022-12-13T05:52:47;19.08;;;7.70;;
55539;SDS011;41384;51.418;7.286;2022-12-13T05:55:12;17.38;;;8.23;;
55539;SDS011;41384;51.418;7.286;2022-12-13T05:57:37;16.80;;;8.50;;
55539;SDS011;41384;51.418;7.286;2022-12-13T06:00:03;16.45;;;8.32;;
55539;SDS011;41384;51.418;7.286;2022-12-13T06:02:30;16.90;;;7.70;;
55539;SDS011;41384;51.418;7.286;2022-12-13T06:04:55;14.93;;;7.75;;
55539;SDS011;41384;51.418;7.286;2022-12-13T06:07:21;14.40;;;7.38;;
55539;SDS011;41384;51.418;7.286;2022-12-13T06:09:46;16.85;;;8.88;;
55539;SDS011;41384;51.418;7.286;2022-12-13T06:12:11;16.95;;;7.90;;
55539;SDS011;41384;51.418;7.286;2022-12-13T06:14:37;19.85;;;8.45;;
55539;SDS011;41384;51.418;7.286;2022-12-13T06:17:02;15.52;;;7.70;;
55539;SDS011;41384;51.418;7.286;2022-12-13T06:19:28;16.70;;;8.15;;
55539;SDS011;41384;51.418;7.286;2022-12-13T06:21:53;15.73;;;7.63;;
55539;SDS011;41384;51.418;7.286;2022-12-13T06:24:20;15.02;;;7.95;;
55539;SDS011;41384;51.418;7.286;2022-12-13T06:26:47;16.40;;;7.43;;
55539;SDS011;41384;51.418;7.286;2022-12-13T06:29:13;15.15;;;7.65;;
55539;SDS011;41384;51.418;7.286;2022-12-13T06:31:39;19.35;;;8.90;;
55539;SDS011;41384;51.418;7.286;2022-12-13T06:34:04;16.33;;;8.75;;
55539;SDS011;41384;51.418;7.286;2022-12-13T06:36:29;19.23;;;7.95;;
55539;SDS011;41384;51.418;7.286;2022-12-13T06:38:54;14.27;;;6.95;;
55539;SDS011;41384;51.418;7.286;2022-12-13T06:41:20;17.95;;;8.05;;
55539;SDS011;41384;51.418;7.286;2022-12-13T06:43:45;16.23;;;8.10;;
55539;SDS011;41384;51.418;7.286;2022-12-13T06:46:12;14.75;;;6.97;;
55539;SDS011;41384;51.418;7.286;2022-12-13T06:48:38;13.77;;;7.07;;
55539;SDS011;41384;51.418;7.286;2022-12-13T06:51:06;17.45;;;7.80;;
55539;SDS011;41384;51.418;7.286;2022-12-13T06:53:34;15.60;;;7.43;;
55539;SDS011;41384;51.418;7.286;2022-12-13T06:56:19;15.02;;;7.68;;
55539;SDS011;41384;51.418;7.286;2022-12-13T06:58:44;14.32;;;7.03;;
55539;SDS011;41384;51.418;7.286;2022-12-13T07:01:13;14.68;;;7.40;;
55539;SDS011;41384;51.418;7.286;2022-12-13T07:03:40;15.25;;;7.35;;
55539;SDS011;41384;51.418;7.286;2022-12-13T07:06:07;14.43;;;7.55;;
55539;SDS011;41384;51.418;7.286;2022-12-13T07:08:36;13.65;;;7.30;;
55539;SDS011;41384;51.418;7.286;2022-12-13T07:11:01;17.25;;;7.30;;
55539;SDS011;41384;51.418;7.286;2022-12-13T07:13:27;16.30;;;7.57;;
55539;SDS011;41384;51.418;7.286;2022-12-13T07:15:54;15.27;;;7.28;;
55539;SDS011;41384;51.418;7.286;2022-12-13T07:18:20;14.73;;;7.07;;
55539;SDS011;41384;51.418;7.286;2022-12-13T07:20:45;16.80;;;7.15;;
55539;SDS011;41384;51.418;7.286;2022-12-13T07:23:11;15.02;;;7.35;;
55539;SDS011;41384;51.418;7.286;2022-12-13T07:25:36;14.05;;;8.18;;
55539;SDS011;41384;51.418;7.286;2022-12-13T07:28:03;18.67;;;7.65;;
55539;SDS011;41384;51.418;7.286;2022-12-13T07:30:37;16.77;;;7.78;;
55539;SDS011;41384;51.418;7.286;2022-12-13T07:33:03;16.90;;;7.68;;
55539;SDS011;41384;51.418;7.286;2022-12-13T07:35:30;15.35;;;6.88;;
55539;SDS011;41384;51.418;7.286;2022-12-13T07:37:56;15.45;;;7.95;;
55539;SDS011;41384;51.418;7.286;2022-12-13T07:40:22;18.50;;;7.85;;
55539;SDS011;41384;51.418;7.286;2022-12-13T07:42:56;15.35;;;7.82;;
55539;SDS011;41384;51.418;7.286;2022-12-13T07:45:22;18.73;;;7.63;;
55539;SDS011;41384;51.418;7.286;2022-12-13T07:47:47;15.02;;;7.75;;
55539;SDS011;41384;51.418;7.286;2022-12-13T07:50:13;16.98;;;8.13;;
55539;SDS011;41384;51.418;7.286;2022-12-13T07:52:39;17.60;;;7.65;;
55539;SDS011;41384;51.418;7.286;2022-12-13T07:55:05;15.38;;;7.78;;
55539;SDS011;41384;51.418;7.286;2022-12-13T07:57:31;16.77;;;7.65;;
55539;SDS011;41384;51.418;7.286;2022-12-13T07:59:57;16.55;;;7.38;;
55539;SDS011;41384;51.418;7.286;2022-12-13T08:02:23;17.70;;;8.40;;
55539;SDS011;41384;51.418;7.286;2022-12-13T08:04:48;17.35;;;7.50;;
55539;SDS011;41384;51.418;7.286;2022-12-13T08:07:14;15.05;;;8.07;;
55539;SDS011;41384;51.418;7.286;2022-12-13T08:09:39;16.88;;;7.60;;
55539;SDS011;41384;51.418;7.286;2022-12-13T08:12:05;15.13;;;8.00;;
55539;SDS011;41384;51.418;7.286;2022-12-13T08:14:30;20.75;;;8.73;;
55539;SDS011;41384;51.418;7.286;2022-12-13T08:16:56;15.10;;;7.60;;
55539;SDS011;41384;51.418;7.286;2022-12-13T08:19:21;18.05;;;7.90;;
55539;SDS011;41384;51.418;7.286;2022-12-13T08:21:47;21.98;;;10.32;;
55539;SDS011;41384;51.418;7.286;2022-12-13T08:24:12;18.00;;;8.68;;
55539;SDS011;41384;51.418;7.286;2022-12-13T08:26:38;21.27;;;10.20;;
55539;SDS011;41384;51.418;7.286;2022-12-13T08:29:04;21.10;;;9.82;;
55539;SDS011;41384;51.418;7.286;2022-12-13T08:31:29;17.73;;;9.48;;
55539;SDS011;41384;51.418;7.286;2022-12-13T08:33:55;21.73;;;9.77;;
55539;SDS011;41384;51.418;7.286;2022-12-13T08:36:21;22.90;;;11.27;;
55539;SDS011;41384;51.418;7.286;2022-12-13T08:38:48;18.27;;;9.98;;
55539;SDS011;41384;51.418;7.286;2022-12-13T08:41:16;22.92;;;10.82;;
55539;SDS011;41384;51.418;7.286;2022-12-13T08:43:42;20.65;;;10.80;;
55539;SDS011;41384;51.418;7.286;2022-12-13T08:46:07;21.83;;;10.40;;
55539;SDS011;41384;51.418;7.286;2022-12-13T08:48:32;23.45;;;11.32;;
55539;SDS011;41384;51.418;7.286;2022-12-13T08:50:59;21.38;;;10.95;;
55539;SDS011;41384;51.418;7.286;2022-12-13T08:53:29;22.65;;;11.23;;
55539;SDS011;41384;51.418;7.286;2022-12-13T08:55:58;22.63;;;9.35;;
55539;SDS011;41384;51.418;7.286;2022-12-13T08:58:24;22.45;;;9.40;;
55539;SDS011;41384;51.418;7.286;2022-12-13T09:00:49;23.30;;;10.30;;
55539;SDS011;41384;51.418;7.286;2022-12-13T09:03:15;19.95;;;8.68;;
55539;SDS011;41384;51.418;7.286;2022-12-13T09:05:40;23.25;;;9.98;;
55539;SDS011;41384;51.418;7.286;2022-12-13T09:08:06;20.42;;;9.32;;
55539;SDS011;41384;51.418;7.286;2022-12-13T09:10:31;17.25;;;9.13;;
55539;SDS011;41384;51.418;7.286;2022-12-13T09:12:56;19.33;;;9.05;;
55539;SDS011;41384;51.418;7.286;2022-12-13T09:15:25;21.67;;;9.70;;
55539;SDS011;41384;51.418;7.286;2022-12-13T09:17:50;20.65;;;9.00;;
55539;SDS011;41384;51.418;7.286;2022-12-13T09:20:15;19.52;;;9.60;;
55539;SDS011;41384;51.418;7.286;2022-12-13T09:22:41;21.58;;;10.45;;
55539;SDS011;41384;51.418;7.286;2022-12-13T09:25:07;19.67;;;10.07;;
55539;SDS011;41384;51.418;7.286;2022-12-13T09:27:33;20.55;;;10.02;;
55539;SDS011;41384;51.418;7.286;2022-12-13T09:29:58;22.92;;;10.00;;
55539;SDS011;41384;51.418;7.286;2022-12-13T09:32:24;20.70;;;9.48;;
55539;SDS011;41384;51.418;7.286;2022-12-13T09:34:51;19.58;;;9.45;;
55539;SDS011;41384;51.418;7.286;2022-12-13T09:37:16;19.45;;;9.25;;
55539;SDS011;41384;51.418;7.286;2022-12-13T09:39:42;17.83;;;8.75;;
55539;SDS011;41384;51.418;7.286;2022-12-13T09:42:13;22.75;;;10.13;;
55539;SDS011;41384;51.418;7.286;2022-12-13T09:44:51;17.90;;;9.25;;
55539;SDS011;41384;51.418;7.286;2022-12-13T09:47:29;17.40;;;8.77;;
55539;SDS011;41384;51.418;7.286;2022-12-13T09:49:59;18.15;;;9.30;;
55539;SDS011;41384;51.418;7.286;2022-12-13T09:52:29;20.95;;;9.98;;
55539;SDS011;41384;51.418;7.286;2022-12-13T09:57:29;15.57;;;8.63;;
55539;SDS011;41384;51.418;7.286;2022-12-13T09:59:56;20.88;;;9.00;;
55539;SDS011;41384;51.418;7.286;2022-12-13T10:04:53;20.05;;;8.95;;
55539;SDS011;41384;51.418;7.286;2022-12-13T10:07:22;20.60;;;9.15;;
55539;SDS011;41384;51.418;7.286;2022-12-13T10:09:51;17.25;;;8.95;;
55539;SDS011;41384;51.418;7.286;2022-12-13T10:12:24;15.18;;;7.93;;
55539;SDS011;41384;51.418;7.286;2022-12-13T10:14:50;18.73;;;9.18;;
55539;SDS011;41384;51.418;7.286;2022-12-13T10:17:22;21.30;;;9.25;;
55539;SDS011;41384;51.418;7.286;2022-12-13T10:19:52;19.95;;;8.80;;
55539;SDS011;41384;51.418;7.286;2022-12-13T10:22:18;18.00;;;7.65;;
55539;SDS011;41384;51.418;7.286;2022-12-13T10:24:48;16.77;;;9.30;;
55539;SDS011;41384;51.418;7.286;2022-12-13T10:27:16;19.77;;;8.80;;
55539;SDS011;41384;51.418;7.286;2022-12-13T10:30:17;24.00;;;9.30;;
55539;SDS011;41384;51.418;7.286;2022-12-13T10:32:54;15.77;;;8.57;;
55539;SDS011;41384;51.418;7.286;2022-12-13T10:35:24;20.02;;;10.10;;
55539;SDS011;41384;51.418;7.286;2022-12-13T10:37:56;21.90;;;9.77;;
55539;SDS011;41384;51.418;7.286;2022-12-13T10:40:33;21.50;;;9.77;;
55539;SDS011;41384;51.418;7.286;2022-12-13T10:43:17;20.55;;;9.52;;
55539;SDS011;41384;51.418;7.286;2022-12-13T10:48:23;18.63;;;9.48;;
55539;SDS011;41384;51.418;7.286;2022-12-13T10:51:00;19.52;;;9.25;;
55539;SDS011;41384;51.418;7.286;2022-12-13T10:53:34;19.33;;;8.80;;
55539;SDS011;41384;51.418;7.286;2022-12-13T10:56:03;18.65;;;9.45;;
55539;SDS011;41384;51.418;7.286;2022-12-13T10:58:48;18.25;;;8.50;;
55539;SDS011;41384;51.418;7.286;2022-12-13T11:03:41;19.85;;;8.88;;
55539;SDS011;41384;51.418;7.286;2022-12-13T11:06:14;20.58;;;8.77;;
55539;SDS011;41384;51.418;7.286;2022-12-13T11:08:41;15.63;;;9.15;;
55539;SDS011;41384;51.418;7.286;2022-12-13T11:11:08;18.33;;;8.38;;
55539;SDS011;41384;51.418;7.286;2022-12-13T11:13:35;21.15;;;11.18;;
55539;SDS011;41384;51.418;7.286;2022-12-13T11:16:03;25.88;;;11.50;;
55539;SDS011;41384;51.418;7.286;2022-12-13T11:18:38;21.48;;;10.38;;
55539;SDS011;41384;51.418;7.286;2022-12-13T11:21:04;20.88;;;10.50;;
55539;SDS011;41384;51.418;7.286;2022-12-13T11:23:52;20.60;;;9.73;;
55539;SDS011;41384;51.418;7.286;2022-12-13T11:26:18;19.70;;;9.23;;
55539;SDS011;41384;51.418;7.286;2022-12-13T11:31:27;20.48;;;9.32;;
55539;SDS011;41384;51.418;7.286;2022-12-13T11:34:09;18.38;;;10.10;;
55539;SDS011;41384;51.418;7.286;2022-12-13T11:39:10;19.15;;;8.63;;
55539;SDS011;41384;51.418;7.286;2022-12-13T11:44:35;15.98;;;8.20;;
55539;SDS011;41384;51.418;7.286;2022-12-13T11:47:13;15.52;;;7.72;;
55539;SDS011;41384;51.418;7.286;2022-12-13T11:49:45;14.30;;;7.85;;
55539;SDS011;41384;51.418;7.286;2022-12-13T11:52:45;15.00;;;7.05;;
55539;SDS011;41384;51.418;7.286;2022-12-13T11:55:15;14.13;;;7.72;;
55539;SDS011;41384;51.418;7.286;2022-12-13T12:00:36;12.70;;;7.28;;
55539;SDS011;41384;51.418;7.286;2022-12-13T12:05:42;19.35;;;7.15;;
55539;SDS011;41384;51.418;7.286;2022-12-13T12:11:06;16.10;;;8.10;;
55539;SDS011;41384;51.418;7.286;2022-12-13T12:13:52;15.63;;;7.43;;
55539;SDS011;41384;51.418;7.286;2022-12-13T12:18:57;15.30;;;7.85;;
55539;SDS011;41384;51.418;7.286;2022-12-13T12:21:28;15.80;;;7.80;;
55539;SDS011;41384;51.418;7.286;2022-12-13T12:27:09;17.42;;;8.23;;
55539;SDS011;41384;51.418;7.286;2022-12-13T12:29:52;15.60;;;7.28;;
55539;SDS011;41384;51.418;7.286;2022-12-13T12:32:31;13.25;;;6.78;;
55539;SDS011;41384;51.418;7.286;2022-12-13T12:40:41;18.55;;;7.90;;
55539;SDS011;41384;51.418;7.286;2022-12-13T12:51:17;13.07;;;7.15;;
55539;SDS011;41384;51.418;7.286;2022-12-13T12:56:34;16.23;;;7.28;;
55539;SDS011;41384;51.418;7.286;2022-12-13T13:02:17;18.15;;;7.15;;
55539;SDS011;41384;51.418;7.286;2022-12-13T13:04:50;15.93;;;7.38;;
55539;SDS011;41384;51.418;7.286;2022-12-13T13:07:32;13.98;;;6.85;;
55539;SDS011;41384;51.418;7.286;2022-12-13T13:10:03;15.70;;;6.85;;
55539;SDS011;41384;51.418;7.286;2022-12-13T13:12:30;15.55;;;7.00;;
55539;SDS011;41384;51.418;7.286;2022-12-13T13:15:16;17.15;;;7.60;;
55539;SDS011;41384;51.418;7.286;2022-12-13T13:17:55;11.88;;;6.45;;
55539;SDS011;41384;51.418;7.286;2022-12-13T13:20:22;18.27;;;6.97;;
55539;SDS011;41384;51.418;7.286;2022-12-13T13:22:49;19.38;;;7.70;;
55539;SDS011;41384;51.418;7.286;2022-12-13T13:25:23;14.48;;;7.05;;
55539;SDS011;41384;51.418;7.286;2022-12-13T13:27:59;16.42;;;7.18;;
55539;SDS011;41384;51.418;7.286;2022-12-13T13:30:26;17.30;;;7.32;;
55539;SDS011;41384;51.418;7.286;2022-12-13T13:32:54;13.02;;;6.75;;
55539;SDS011;41384;51.418;7.286;2022-12-13T13:37:56;14.73;;;6.90;;
55539;SDS011;41384;51.418;7.286;2022-12-13T13:54:19;17.38;;;8.82;;
55539;SDS011;41384;51.418;7.286;2022-12-13T14:00:23;18.83;;;8.85;;
55539;SDS011;41384;51.418;7.286;2022-12-13T14:06:12;18.65;;;8.27;;
55539;SDS011;41384;51.418;7.286;2022-12-13T14:08:48;17.13;;;8.75;;
55539;SDS011;41384;51.418;7.286;2022-12-13T14:20:23;19.95;;;8.27;;
55539;SDS011;41384;51.418;7.286;2022-12-13T14:28:46;21.25;;;9.70;;
55539;SDS011;41384;51.418;7.286;2022-12-13T14:31:58;18.48;;;10.45;;
55539;SDS011;41384;51.418;7.286;2022-12-13T14:34:01;23.73;;;9.18;;
55539;SDS011;41384;51.418;7.286;2022-12-13T14:36:29;22.02;;;9.88;;
55539;SDS011;41384;51.418;7.286;2022-12-13T14:39:03;17.08;;;9.77;;
55539;SDS011;41384;51.418;7.286;2022-12-13T14:41:30;24.50;;;13.18;;
55539;SDS011;41384;51.418;7.286;2022-12-13T14:44:12;24.45;;;11.82;;
55539;SDS011;41384;51.418;7.286;2022-12-13T14:46:46;17.55;;;9.60;;
55539;SDS011;41384;51.418;7.286;2022-12-13T14:49:16;22.45;;;9.52;;
55539;SDS011;41384;51.418;7.286;2022-12-13T14:51:43;22.98;;;10.35;;
55539;SDS011;41384;51.418;7.286;2022-12-13T14:54:16;21.92;;;10.68;;
55539;SDS011;41384;51.418;7.286;2022-12-13T14:56:55;15.02;;;9.63;;
55539;SDS011;41384;51.418;7.286;2022-12-13T14:59:22;21.08;;;9.98;;
55539;SDS011;41384;51.418;7.286;2022-12-13T15:01:55;22.88;;;10.70;;
55539;SDS011;41384;51.418;7.286;2022-12-13T15:06:57;20.20;;;9.80;;
55539;SDS011;41384;51.418;7.286;2022-12-13T15:09:38;23.50;;;10.38;;
55539;SDS011;41384;51.418;7.286;2022-12-13T15:12:09;21.50;;;9.80;;
55539;SDS011;41384;51.418;7.286;2022-12-13T15:14:36;21.85;;;11.80;;
55539;SDS011;41384;51.418;7.286;2022-12-13T15:17:10;21.50;;;10.30;;
55539;SDS011;41384;51.418;7.286;2022-12-13T15:19:49;24.45;;;12.90;;
55539;SDS011;41384;51.418;7.286;2022-12-13T15:22:14;53.50;;;32.22;;
55539;SDS011;41384;51.418;7.286;2022-12-13T15:24:40;40.33;;;22.38;;
55539;SDS011;41384;51.418;7.286;2022-12-13T15:27:10;32.53;;;17.42;;
55539;SDS011;41384;51.418;7.286;2022-12-13T15:29:37;21.42;;;14.35;;
55539;SDS011;41384;51.418;7.286;2022-12-13T15:32:03;26.13;;;13.18;;
55539;SDS011;41384;51.418;7.286;2022-12-13T15:34:36;21.38;;;10.40;;
55539;SDS011;41384;51.418;7.286;2022-12-13T15:37:06;21.00;;;10.20;;
55539;SDS011;41384;51.418;7.286;2022-12-13T15:39:46;20.77;;;9.15;;
55539;SDS011;41384;51.418;7.286;2022-12-13T15:42:14;18.70;;;9.00;;
55539;SDS011;41384;51.418;7.286;2022-12-13T15:44:44;18.83;;;9.45;;
55539;SDS011;41384;51.418;7.286;2022-12-13T15:47:17;19.60;;;9.55;;
55539;SDS011;41384;51.418;7.286;2022-12-13T15:50:00;23.60;;;9.30;;
55539;SDS011;41384;51.418;7.286;2022-12-13T15:52:33;20.10;;;9.77;;
55539;SDS011;41384;51.418;7.286;2022-12-13T15:57:34;23.48;;;9.43;;
55539;SDS011;41384;51.418;7.286;2022-12-13T16:05:31;77.60;;;33.90;;
55539;SDS011;41384;51.418;7.286;2022-12-13T16:07:59;75.70;;;37.05;;
55539;SDS011;41384;51.418;7.286;2022-12-13T16:10:27;30.65;;;18.52;;
55539;SDS011;41384;51.418;7.286;2022-12-13T16:12:58;29.23;;;14.95;;
55539;SDS011;41384;51.418;7.286;2022-12-13T16:15:27;33.53;;;15.70;;
55539;SDS011;41384;51.418;7.286;2022-12-13T16:18:03;210.02;;;80.75;;
55539;SDS011;41384;51.418;7.286;2022-12-13T16:20:31;119.90;;;48.58;;
55539;SDS011;41384;51.418;7.286;2022-12-13T16:22:56;37.85;;;20.05;;
55539;SDS011;41384;51.418;7.286;2022-12-13T16:25:22;26.23;;;14.38;;
55539;SDS011;41384;51.418;7.286;2022-12-13T16:27:47;59.15;;;30.02;;
55539;SDS011;41384;51.418;7.286;2022-12-13T16:30:14;56.88;;;27.98;;
55539;SDS011;41384;51.418;7.286;2022-12-13T16:32:47;25.65;;;16.77;;
55539;SDS011;41384;51.418;7.286;2022-12-13T16:35:13;23.98;;;12.73;;
55539;SDS011;41384;51.418;7.286;2022-12-13T16:37:39;23.30;;;13.38;;